sensor_id;sensor_type;location;lat;lon;timestamp;P1;durP1;ratioP1;P2;durP2;ratioP2
14078;SDS011;7115;50.150;8.568;2023-05-31T00:01:42;7.13;;;2.07;;
14078;SDS011;7115;50.150;8.568;2023-05-31T00:04:09;6.20;;;2.20;;
14078;SDS011;7115;50.150;8.568;2023-05-31T00:06:36;5.10;;;1.70;;
14078;SDS011;7115;50.150;8.568;2023-05-31T00:09:03;6.20;;;2.00;;
14078;SDS011;7115;50.150;8.568;2023-05-31T00:11:30;6.97;;;2.30;;
14078;SDS011;7115;50.150;8.568;2023-05-31T00:14:00;9.67;;;2.27;;
14078;SDS011;7115;50.150;8.568;2023-05-31T00:16:27;6.43;;;2.37;;
14078;SDS011;7115;50.150;8.568;2023-05-31T00:19:13;8.17;;;2.00;;
14078;SDS011;7115;50.150;8.568;2023-05-31T00:21:41;9.13;;;2.70;;
14078;SDS011;7115;50.150;8.568;2023-05-31T00:24:09;7.70;;;2.33;;
14078;SDS011;7115;50.150;8.568;2023-05-31T00:26:36;7.83;;;2.10;;
14078;SDS011;7115;50.150;8.568;2023-05-31T00:29:05;7.83;;;2.10;;
14078;SDS011;7115;50.150;8.568;2023-05-31T00:31:31;7.90;;;2.30;;
14078;SDS011;7115;50.150;8.568;2023-05-31T00:33:58;8.10;;;2.23;;
14078;SDS011;7115;50.150;8.568;2023-05-31T00:36:26;5.00;;;2.13;;
14078;SDS011;7115;50.150;8.568;2023-05-31T00:38:52;9.97;;;2.83;;
14078;SDS011;7115;50.150;8.568;2023-05-31T00:41:19;8.20;;;2.77;;
14078;SDS011;7115;50.150;8.568;2023-05-31T00:43:47;5.70;;;2.00;;
14078;SDS011;7115;50.150;8.568;2023-05-31T00:46:20;5.63;;;2.30;;
14078;SDS011;7115;50.150;8.568;2023-05-31T00:48:52;9.13;;;2.60;;
14078;SDS011;7115;50.150;8.568;2023-05-31T00:51:20;10.60;;;2.70;;
14078;SDS011;7115;50.150;8.568;2023-05-31T00:53:47;7.07;;;1.90;;
14078;SDS011;7115;50.150;8.568;2023-05-31T00:56:14;3.80;;;1.93;;
14078;SDS011;7115;50.150;8.568;2023-05-31T00:58:42;5.50;;;1.80;;
14078;SDS011;7115;50.150;8.568;2023-05-31T01:01:10;3.37;;;1.87;;
14078;SDS011;7115;50.150;8.568;2023-05-31T01:03:41;6.60;;;2.53;;
14078;SDS011;7115;50.150;8.568;2023-05-31T01:06:08;8.47;;;2.00;;
14078;SDS011;7115;50.150;8.568;2023-05-31T01:08:36;7.37;;;2.60;;
14078;SDS011;7115;50.150;8.568;2023-05-31T01:11:06;2.77;;;1.90;;
14078;SDS011;7115;50.150;8.568;2023-05-31T01:13:42;8.30;;;2.30;;
14078;SDS011;7115;50.150;8.568;2023-05-31T01:16:16;7.10;;;2.17;;
14078;SDS011;7115;50.150;8.568;2023-05-31T01:18:51;6.63;;;2.13;;
14078;SDS011;7115;50.150;8.568;2023-05-31T01:21:24;5.30;;;2.27;;
14078;SDS011;7115;50.150;8.568;2023-05-31T01:23:59;6.03;;;2.13;;
14078;SDS011;7115;50.150;8.568;2023-05-31T01:26:41;6.30;;;2.23;;
14078;SDS011;7115;50.150;8.568;2023-05-31T01:29:13;5.33;;;2.30;;
14078;SDS011;7115;50.150;8.568;2023-05-31T01:31:44;8.93;;;2.33;;
14078;SDS011;7115;50.150;8.568;2023-05-31T01:34:12;5.57;;;1.90;;
14078;SDS011;7115;50.150;8.568;2023-05-31T01:36:39;8.07;;;2.20;;
14078;SDS011;7115;50.150;8.568;2023-05-31T01:39:06;9.03;;;2.17;;
14078;SDS011;7115;50.150;8.568;2023-05-31T01:41:36;7.50;;;2.37;;
14078;SDS011;7115;50.150;8.568;2023-05-31T01:44:07;8.37;;;2.33;;
14078;SDS011;7115;50.150;8.568;2023-05-31T01:46:35;5.00;;;2.13;;
14078;SDS011;7115;50.150;8.568;2023-05-31T01:49:03;4.83;;;2.43;;
14078;SDS011;7115;50.150;8.568;2023-05-31T01:51:31;10.43;;;2.47;;
14078;SDS011;7115;50.150;8.568;2023-05-31T01:53:59;7.67;;;2.20;;
14078;SDS011;7115;50.150;8.568;2023-05-31T01:56:26;8.23;;;2.43;;
14078;SDS011;7115;50.150;8.568;2023-05-31T01:58:56;7.00;;;2.37;;
14078;SDS011;7115;50.150;8.568;2023-05-31T02:01:26;7.03;;;2.10;;
14078;SDS011;7115;50.150;8.568;2023-05-31T02:03:54;6.67;;;2.60;;
14078;SDS011;7115;50.150;8.568;2023-05-31T02:06:21;8.83;;;2.67;;
14078;SDS011;7115;50.150;8.568;2023-05-31T02:08:48;6.80;;;2.87;;
14078;SDS011;7115;50.150;8.568;2023-05-31T02:11:15;7.00;;;2.60;;
14078;SDS011;7115;50.150;8.568;2023-05-31T02:13:42;5.70;;;2.33;;
14078;SDS011;7115;50.150;8.568;2023-05-31T02:16:09;9.63;;;2.37;;
14078;SDS011;7115;50.150;8.568;2023-05-31T02:18:38;9.80;;;2.90;;
14078;SDS011;7115;50.150;8.568;2023-05-31T02:21:05;6.17;;;2.50;;
14078;SDS011;7115;50.150;8.568;2023-05-31T02:23:32;6.43;;;2.27;;
14078;SDS011;7115;50.150;8.568;2023-05-31T02:25:59;7.07;;;2.57;;
14078;SDS011;7115;50.150;8.568;2023-05-31T02:28:26;6.63;;;2.40;;
14078;SDS011;7115;50.150;8.568;2023-05-31T02:30:54;8.87;;;2.30;;
14078;SDS011;7115;50.150;8.568;2023-05-31T02:33:21;6.43;;;2.33;;
14078;SDS011;7115;50.150;8.568;2023-05-31T02:35:50;6.90;;;3.03;;
14078;SDS011;7115;50.150;8.568;2023-05-31T02:38:18;6.37;;;2.57;;
14078;SDS011;7115;50.150;8.568;2023-05-31T02:40:45;7.67;;;2.57;;
14078;SDS011;7115;50.150;8.568;2023-05-31T02:43:12;8.37;;;2.40;;
14078;SDS011;7115;50.150;8.568;2023-05-31T02:45:39;7.00;;;2.60;;
14078;SDS011;7115;50.150;8.568;2023-05-31T02:48:06;4.77;;;2.40;;
14078;SDS011;7115;50.150;8.568;2023-05-31T02:50:33;6.43;;;2.57;;
14078;SDS011;7115;50.150;8.568;2023-05-31T02:53:01;7.10;;;2.60;;
14078;SDS011;7115;50.150;8.568;2023-05-31T02:55:31;7.63;;;2.13;;
14078;SDS011;7115;50.150;8.568;2023-05-31T02:57:59;8.07;;;3.30;;
14078;SDS011;7115;50.150;8.568;2023-05-31T03:00:26;10.63;;;2.60;;
14078;SDS011;7115;50.150;8.568;2023-05-31T03:02:53;7.07;;;2.63;;
14078;SDS011;7115;50.150;8.568;2023-05-31T03:05:20;7.63;;;2.47;;
14078;SDS011;7115;50.150;8.568;2023-05-31T03:07:49;8.00;;;2.30;;
14078;SDS011;7115;50.150;8.568;2023-05-31T03:10:17;6.00;;;2.60;;
14078;SDS011;7115;50.150;8.568;2023-05-31T03:12:44;5.47;;;2.57;;
14078;SDS011;7115;50.150;8.568;2023-05-31T03:15:11;9.10;;;2.93;;
14078;SDS011;7115;50.150;8.568;2023-05-31T03:17:38;8.33;;;2.50;;
14078;SDS011;7115;50.150;8.568;2023-05-31T03:20:06;7.27;;;2.50;;
14078;SDS011;7115;50.150;8.568;2023-05-31T03:22:35;7.03;;;2.80;;
14078;SDS011;7115;50.150;8.568;2023-05-31T03:25:03;7.10;;;2.70;;
14078;SDS011;7115;50.150;8.568;2023-05-31T03:27:32;7.43;;;2.67;;
14078;SDS011;7115;50.150;8.568;2023-05-31T03:29:59;7.13;;;2.50;;
14078;SDS011;7115;50.150;8.568;2023-05-31T03:32:26;9.93;;;2.60;;
14078;SDS011;7115;50.150;8.568;2023-05-31T03:34:53;4.43;;;2.20;;
14078;SDS011;7115;50.150;8.568;2023-05-31T03:37:21;10.17;;;2.37;;
14078;SDS011;7115;50.150;8.568;2023-05-31T03:39:47;8.87;;;2.27;;
14078;SDS011;7115;50.150;8.568;2023-05-31T03:42:15;4.67;;;2.47;;
14078;SDS011;7115;50.150;8.568;2023-05-31T03:44:43;4.80;;;2.57;;
14078;SDS011;7115;50.150;8.568;2023-05-31T03:47:10;4.93;;;2.13;;
14078;SDS011;7115;50.150;8.568;2023-05-31T03:49:37;8.13;;;2.83;;
14078;SDS011;7115;50.150;8.568;2023-05-31T03:52:05;8.43;;;2.27;;
14078;SDS011;7115;50.150;8.568;2023-05-31T03:54:32;5.33;;;2.37;;
14078;SDS011;7115;50.150;8.568;2023-05-31T03:56:59;6.77;;;2.63;;
14078;SDS011;7115;50.150;8.568;2023-05-31T03:59:26;7.87;;;2.63;;
14078;SDS011;7115;50.150;8.568;2023-05-31T04:01:54;5.80;;;2.50;;
14078;SDS011;7115;50.150;8.568;2023-05-31T04:04:21;3.77;;;2.30;;
14078;SDS011;7115;50.150;8.568;2023-05-31T04:06:49;6.33;;;2.70;;
14078;SDS011;7115;50.150;8.568;2023-05-31T04:09:16;7.53;;;2.53;;
14078;SDS011;7115;50.150;8.568;2023-05-31T04:11:44;4.70;;;2.40;;
14078;SDS011;7115;50.150;8.568;2023-05-31T04:14:11;7.10;;;2.63;;
14078;SDS011;7115;50.150;8.568;2023-05-31T04:16:38;7.57;;;2.50;;
14078;SDS011;7115;50.150;8.568;2023-05-31T04:19:07;5.70;;;2.77;;
14078;SDS011;7115;50.150;8.568;2023-05-31T04:21:34;5.73;;;2.77;;
14078;SDS011;7115;50.150;8.568;2023-05-31T04:24:01;8.53;;;2.33;;
14078;SDS011;7115;50.150;8.568;2023-05-31T04:26:28;4.93;;;2.40;;
14078;SDS011;7115;50.150;8.568;2023-05-31T04:28:55;7.13;;;2.20;;
14078;SDS011;7115;50.150;8.568;2023-05-31T04:31:23;5.87;;;2.23;;
14078;SDS011;7115;50.150;8.568;2023-05-31T04:34:09;5.37;;;2.63;;
14078;SDS011;7115;50.150;8.568;2023-05-31T04:36:36;6.07;;;2.17;;
14078;SDS011;7115;50.150;8.568;2023-05-31T04:39:05;6.50;;;2.73;;
14078;SDS011;7115;50.150;8.568;2023-05-31T04:41:38;5.20;;;2.47;;
14078;SDS011;7115;50.150;8.568;2023-05-31T04:44:08;8.03;;;2.50;;
14078;SDS011;7115;50.150;8.568;2023-05-31T04:46:35;4.40;;;2.70;;
14078;SDS011;7115;50.150;8.568;2023-05-31T04:49:02;5.27;;;2.17;;
14078;SDS011;7115;50.150;8.568;2023-05-31T04:51:31;6.87;;;2.60;;
14078;SDS011;7115;50.150;8.568;2023-05-31T04:53:59;5.77;;;2.60;;
14078;SDS011;7115;50.150;8.568;2023-05-31T04:56:26;5.97;;;2.50;;
14078;SDS011;7115;50.150;8.568;2023-05-31T04:58:52;4.70;;;2.90;;
14078;SDS011;7115;50.150;8.568;2023-05-31T05:01:19;5.93;;;2.67;;
14078;SDS011;7115;50.150;8.568;2023-05-31T05:03:46;6.27;;;2.70;;
14078;SDS011;7115;50.150;8.568;2023-05-31T05:06:14;10.80;;;2.57;;
14078;SDS011;7115;50.150;8.568;2023-05-31T05:08:46;9.07;;;3.00;;
14078;SDS011;7115;50.150;8.568;2023-05-31T05:11:13;8.10;;;2.73;;
14078;SDS011;7115;50.150;8.568;2023-05-31T05:13:40;4.27;;;2.70;;
14078;SDS011;7115;50.150;8.568;2023-05-31T05:16:08;6.07;;;2.90;;
14078;SDS011;7115;50.150;8.568;2023-05-31T05:18:35;4.73;;;2.50;;
14078;SDS011;7115;50.150;8.568;2023-05-31T05:21:02;6.30;;;2.40;;
14078;SDS011;7115;50.150;8.568;2023-05-31T05:23:30;7.40;;;3.30;;
14078;SDS011;7115;50.150;8.568;2023-05-31T05:26:00;8.70;;;2.70;;
14078;SDS011;7115;50.150;8.568;2023-05-31T05:28:29;5.97;;;2.43;;
14078;SDS011;7115;50.150;8.568;2023-05-31T05:30:56;8.30;;;2.23;;
14078;SDS011;7115;50.150;8.568;2023-05-31T05:33:23;5.90;;;2.50;;
14078;SDS011;7115;50.150;8.568;2023-05-31T05:35:51;5.20;;;2.37;;
14078;SDS011;7115;50.150;8.568;2023-05-31T05:38:18;5.77;;;2.27;;
14078;SDS011;7115;50.150;8.568;2023-05-31T05:40:45;8.60;;;2.90;;
14078;SDS011;7115;50.150;8.568;2023-05-31T05:43:13;7.87;;;2.90;;
14078;SDS011;7115;50.150;8.568;2023-05-31T05:45:40;7.93;;;2.67;;
14078;SDS011;7115;50.150;8.568;2023-05-31T05:48:07;9.00;;;2.90;;
14078;SDS011;7115;50.150;8.568;2023-05-31T05:50:34;6.00;;;2.80;;
14078;SDS011;7115;50.150;8.568;2023-05-31T05:53:01;4.40;;;2.20;;
14078;SDS011;7115;50.150;8.568;2023-05-31T05:55:28;6.50;;;2.20;;
14078;SDS011;7115;50.150;8.568;2023-05-31T05:57:56;5.40;;;1.87;;
14078;SDS011;7115;50.150;8.568;2023-05-31T06:00:24;5.97;;;2.27;;
14078;SDS011;7115;50.150;8.568;2023-05-31T06:02:51;6.60;;;2.20;;
14078;SDS011;7115;50.150;8.568;2023-05-31T06:05:18;7.47;;;1.87;;
14078;SDS011;7115;50.150;8.568;2023-05-31T06:07:52;5.47;;;2.10;;
14078;SDS011;7115;50.150;8.568;2023-05-31T06:10:20;5.17;;;2.27;;
14078;SDS011;7115;50.150;8.568;2023-05-31T06:12:47;4.63;;;1.83;;
14078;SDS011;7115;50.150;8.568;2023-05-31T06:15:13;4.77;;;2.03;;
14078;SDS011;7115;50.150;8.568;2023-05-31T06:17:42;5.23;;;2.40;;
14078;SDS011;7115;50.150;8.568;2023-05-31T06:20:10;8.20;;;2.10;;
14078;SDS011;7115;50.150;8.568;2023-05-31T06:22:37;6.70;;;2.00;;
14078;SDS011;7115;50.150;8.568;2023-05-31T06:25:04;4.63;;;2.03;;
14078;SDS011;7115;50.150;8.568;2023-05-31T06:27:32;5.23;;;1.80;;
14078;SDS011;7115;50.150;8.568;2023-05-31T06:29:59;7.17;;;2.43;;
14078;SDS011;7115;50.150;8.568;2023-05-31T06:32:27;8.00;;;2.30;;
14078;SDS011;7115;50.150;8.568;2023-05-31T06:34:55;5.23;;;1.83;;
14078;SDS011;7115;50.150;8.568;2023-05-31T06:37:23;5.73;;;1.93;;
14078;SDS011;7115;50.150;8.568;2023-05-31T06:39:49;4.77;;;2.03;;
14078;SDS011;7115;50.150;8.568;2023-05-31T06:42:16;8.37;;;1.93;;
14078;SDS011;7115;50.150;8.568;2023-05-31T06:44:44;4.70;;;2.10;;
14078;SDS011;7115;50.150;8.568;2023-05-31T06:47:22;6.93;;;2.50;;
14078;SDS011;7115;50.150;8.568;2023-05-31T06:49:49;7.10;;;2.10;;
14078;SDS011;7115;50.150;8.568;2023-05-31T06:52:17;7.83;;;2.00;;
14078;SDS011;7115;50.150;8.568;2023-05-31T06:54:44;3.70;;;2.00;;
14078;SDS011;7115;50.150;8.568;2023-05-31T06:57:11;5.67;;;2.00;;
14078;SDS011;7115;50.150;8.568;2023-05-31T06:59:38;3.37;;;1.97;;
14078;SDS011;7115;50.150;8.568;2023-05-31T07:02:06;4.57;;;1.83;;
14078;SDS011;7115;50.150;8.568;2023-05-31T07:04:33;6.67;;;2.17;;
14078;SDS011;7115;50.150;8.568;2023-05-31T07:06:59;5.77;;;2.40;;
14078;SDS011;7115;50.150;8.568;2023-05-31T07:09:28;7.27;;;2.33;;
14078;SDS011;7115;50.150;8.568;2023-05-31T07:11:55;7.43;;;2.10;;
14078;SDS011;7115;50.150;8.568;2023-05-31T07:14:22;6.77;;;2.40;;
14078;SDS011;7115;50.150;8.568;2023-05-31T07:16:50;5.57;;;2.03;;
14078;SDS011;7115;50.150;8.568;2023-05-31T07:19:16;5.13;;;1.53;;
14078;SDS011;7115;50.150;8.568;2023-05-31T07:21:43;4.77;;;1.83;;
14078;SDS011;7115;50.150;8.568;2023-05-31T07:24:10;5.67;;;2.00;;
14078;SDS011;7115;50.150;8.568;2023-05-31T07:26:39;5.27;;;2.00;;
14078;SDS011;7115;50.150;8.568;2023-05-31T07:29:06;5.33;;;2.13;;
14078;SDS011;7115;50.150;8.568;2023-05-31T07:31:33;3.80;;;2.10;;
14078;SDS011;7115;50.150;8.568;2023-05-31T07:34:00;7.40;;;2.43;;
14078;SDS011;7115;50.150;8.568;2023-05-31T07:36:27;4.27;;;1.90;;
14078;SDS011;7115;50.150;8.568;2023-05-31T07:38:54;5.00;;;2.17;;
14078;SDS011;7115;50.150;8.568;2023-05-31T07:41:21;4.70;;;2.00;;
14078;SDS011;7115;50.150;8.568;2023-05-31T07:43:51;6.07;;;2.17;;
14078;SDS011;7115;50.150;8.568;2023-05-31T07:46:18;5.80;;;1.60;;
14078;SDS011;7115;50.150;8.568;2023-05-31T07:48:45;2.70;;;1.50;;
14078;SDS011;7115;50.150;8.568;2023-05-31T07:51:12;6.90;;;2.13;;
14078;SDS011;7115;50.150;8.568;2023-05-31T07:53:39;5.43;;;2.10;;
14078;SDS011;7115;50.150;8.568;2023-05-31T07:56:07;4.67;;;1.90;;
14078;SDS011;7115;50.150;8.568;2023-05-31T07:58:34;4.07;;;1.80;;
14078;SDS011;7115;50.150;8.568;2023-05-31T08:01:02;4.43;;;1.80;;
14078;SDS011;7115;50.150;8.568;2023-05-31T08:03:29;4.27;;;1.40;;
14078;SDS011;7115;50.150;8.568;2023-05-31T08:05:57;6.07;;;2.37;;
14078;SDS011;7115;50.150;8.568;2023-05-31T08:08:24;8.30;;;2.30;;
14078;SDS011;7115;50.150;8.568;2023-05-31T08:10:52;6.10;;;1.77;;
14078;SDS011;7115;50.150;8.568;2023-05-31T08:13:19;6.80;;;2.17;;
14078;SDS011;7115;50.150;8.568;2023-05-31T08:15:45;2.67;;;1.67;;
14078;SDS011;7115;50.150;8.568;2023-05-31T08:18:14;6.90;;;1.60;;
14078;SDS011;7115;50.150;8.568;2023-05-31T08:20:41;3.90;;;1.80;;
14078;SDS011;7115;50.150;8.568;2023-05-31T08:23:08;4.67;;;1.60;;
14078;SDS011;7115;50.150;8.568;2023-05-31T08:25:35;4.20;;;1.93;;
14078;SDS011;7115;50.150;8.568;2023-05-31T08:28:06;3.37;;;1.70;;
14078;SDS011;7115;50.150;8.568;2023-05-31T08:30:33;7.33;;;1.80;;
14078;SDS011;7115;50.150;8.568;2023-05-31T08:33:00;3.53;;;1.80;;
14078;SDS011;7115;50.150;8.568;2023-05-31T08:35:29;2.50;;;1.47;;
14078;SDS011;7115;50.150;8.568;2023-05-31T08:37:56;6.30;;;2.10;;
14078;SDS011;7115;50.150;8.568;2023-05-31T08:40:24;3.33;;;1.97;;
14078;SDS011;7115;50.150;8.568;2023-05-31T08:42:52;6.60;;;1.80;;
14078;SDS011;7115;50.150;8.568;2023-05-31T08:45:21;5.10;;;1.60;;
14078;SDS011;7115;50.150;8.568;2023-05-31T08:47:51;3.80;;;1.63;;
14078;SDS011;7115;50.150;8.568;2023-05-31T08:50:24;9.37;;;2.77;;
14078;SDS011;7115;50.150;8.568;2023-05-31T08:52:54;6.27;;;1.90;;
14078;SDS011;7115;50.150;8.568;2023-05-31T08:55:22;4.67;;;1.97;;
14078;SDS011;7115;50.150;8.568;2023-05-31T08:57:51;3.83;;;1.53;;
14078;SDS011;7115;50.150;8.568;2023-05-31T09:00:18;4.93;;;1.70;;
14078;SDS011;7115;50.150;8.568;2023-05-31T09:02:46;3.40;;;1.67;;
14078;SDS011;7115;50.150;8.568;2023-05-31T09:05:14;3.33;;;1.60;;
14078;SDS011;7115;50.150;8.568;2023-05-31T09:07:42;5.47;;;1.80;;
14078;SDS011;7115;50.150;8.568;2023-05-31T09:10:10;4.43;;;2.20;;
14078;SDS011;7115;50.150;8.568;2023-05-31T09:12:40;2.37;;;1.20;;
14078;SDS011;7115;50.150;8.568;2023-05-31T09:15:07;4.23;;;1.30;;
14078;SDS011;7115;50.150;8.568;2023-05-31T09:17:41;3.07;;;1.33;;
14078;SDS011;7115;50.150;8.568;2023-05-31T09:20:10;4.57;;;1.80;;
14078;SDS011;7115;50.150;8.568;2023-05-31T09:22:38;5.13;;;1.50;;
14078;SDS011;7115;50.150;8.568;2023-05-31T09:25:05;2.53;;;1.17;;
14078;SDS011;7115;50.150;8.568;2023-05-31T09:27:37;4.30;;;1.50;;
14078;SDS011;7115;50.150;8.568;2023-05-31T09:30:06;5.17;;;1.60;;
14078;SDS011;7115;50.150;8.568;2023-05-31T09:32:35;4.40;;;1.33;;
14078;SDS011;7115;50.150;8.568;2023-05-31T09:35:11;3.33;;;1.30;;
14078;SDS011;7115;50.150;8.568;2023-05-31T09:37:43;3.33;;;1.60;;
14078;SDS011;7115;50.150;8.568;2023-05-31T09:40:12;3.47;;;1.10;;
14078;SDS011;7115;50.150;8.568;2023-05-31T09:42:47;3.57;;;1.50;;
14078;SDS011;7115;50.150;8.568;2023-05-31T09:45:15;3.10;;;1.50;;
14078;SDS011;7115;50.150;8.568;2023-05-31T09:47:42;2.57;;;1.50;;
14078;SDS011;7115;50.150;8.568;2023-05-31T09:50:09;8.17;;;1.60;;
14078;SDS011;7115;50.150;8.568;2023-05-31T09:52:37;7.40;;;1.60;;
14078;SDS011;7115;50.150;8.568;2023-05-31T09:55:05;2.63;;;1.50;;
14078;SDS011;7115;50.150;8.568;2023-05-31T09:57:33;2.63;;;1.40;;
14078;SDS011;7115;50.150;8.568;2023-05-31T10:00:09;4.73;;;1.40;;
14078;SDS011;7115;50.150;8.568;2023-05-31T10:02:41;3.77;;;1.57;;
14078;SDS011;7115;50.150;8.568;2023-05-31T10:05:09;5.20;;;1.50;;
14078;SDS011;7115;50.150;8.568;2023-05-31T10:07:38;4.87;;;1.40;;
14078;SDS011;7115;50.150;8.568;2023-05-31T10:10:06;6.73;;;1.60;;
14078;SDS011;7115;50.150;8.568;2023-05-31T10:12:34;5.63;;;1.60;;
14078;SDS011;7115;50.150;8.568;2023-05-31T10:15:06;3.50;;;1.47;;
14078;SDS011;7115;50.150;8.568;2023-05-31T10:17:38;3.37;;;1.13;;
14078;SDS011;7115;50.150;8.568;2023-05-31T10:20:17;5.30;;;1.73;;
14078;SDS011;7115;50.150;8.568;2023-05-31T10:22:46;4.27;;;1.07;;
14078;SDS011;7115;50.150;8.568;2023-05-31T10:25:22;2.60;;;1.40;;
14078;SDS011;7115;50.150;8.568;2023-05-31T10:27:54;3.37;;;1.40;;
14078;SDS011;7115;50.150;8.568;2023-05-31T10:30:28;4.53;;;1.33;;
14078;SDS011;7115;50.150;8.568;2023-05-31T10:32:59;2.33;;;1.37;;
14078;SDS011;7115;50.150;8.568;2023-05-31T10:35:32;6.57;;;1.37;;
14078;SDS011;7115;50.150;8.568;2023-05-31T10:37:59;3.43;;;1.03;;
14078;SDS011;7115;50.150;8.568;2023-05-31T10:40:30;3.83;;;1.43;;
14078;SDS011;7115;50.150;8.568;2023-05-31T10:43:03;3.90;;;1.30;;
14078;SDS011;7115;50.150;8.568;2023-05-31T10:45:38;3.70;;;1.30;;
14078;SDS011;7115;50.150;8.568;2023-05-31T10:48:10;2.47;;;1.17;;
14078;SDS011;7115;50.150;8.568;2023-05-31T10:50:51;7.00;;;1.70;;
14078;SDS011;7115;50.150;8.568;2023-05-31T10:53:19;3.00;;;1.20;;
14078;SDS011;7115;50.150;8.568;2023-05-31T10:55:47;2.33;;;1.40;;
14078;SDS011;7115;50.150;8.568;2023-05-31T10:58:26;2.10;;;1.50;;
14078;SDS011;7115;50.150;8.568;2023-05-31T11:00:56;1.37;;;0.93;;
14078;SDS011;7115;50.150;8.568;2023-05-31T11:03:24;4.70;;;1.20;;
14078;SDS011;7115;50.150;8.568;2023-05-31T11:05:54;1.70;;;1.10;;
14078;SDS011;7115;50.150;8.568;2023-05-31T11:08:21;3.67;;;1.60;;
14078;SDS011;7115;50.150;8.568;2023-05-31T11:10:49;5.10;;;1.30;;
14078;SDS011;7115;50.150;8.568;2023-05-31T11:13:16;4.43;;;1.50;;
14078;SDS011;7115;50.150;8.568;2023-05-31T11:15:46;8.13;;;1.10;;
14078;SDS011;7115;50.150;8.568;2023-05-31T11:18:15;4.13;;;1.20;;
14078;SDS011;7115;50.150;8.568;2023-05-31T11:20:48;2.03;;;1.47;;
14078;SDS011;7115;50.150;8.568;2023-05-31T11:23:25;2.70;;;1.30;;
14078;SDS011;7115;50.150;8.568;2023-05-31T11:26:14;5.20;;;1.40;;
14078;SDS011;7115;50.150;8.568;2023-05-31T11:34:30;3.03;;;1.73;;
14078;SDS011;7115;50.150;8.568;2023-05-31T11:37:00;2.20;;;1.40;;
14078;SDS011;7115;50.150;8.568;2023-05-31T11:39:28;2.13;;;1.17;;
14078;SDS011;7115;50.150;8.568;2023-05-31T11:41:56;4.70;;;1.20;;
14078;SDS011;7115;50.150;8.568;2023-05-31T11:44:25;3.27;;;1.40;;
14078;SDS011;7115;50.150;8.568;2023-05-31T11:47:04;3.30;;;1.40;;
14078;SDS011;7115;50.150;8.568;2023-05-31T11:49:33;2.37;;;1.43;;
14078;SDS011;7115;50.150;8.568;2023-05-31T11:52:01;4.27;;;1.20;;
14078;SDS011;7115;50.150;8.568;2023-05-31T11:54:30;4.00;;;1.43;;
14078;SDS011;7115;50.150;8.568;2023-05-31T11:56:59;4.90;;;1.50;;
14078;SDS011;7115;50.150;8.568;2023-05-31T11:59:30;4.70;;;0.97;;
14078;SDS011;7115;50.150;8.568;2023-05-31T12:02:01;2.23;;;1.00;;
14078;SDS011;7115;50.150;8.568;2023-05-31T12:04:30;5.37;;;1.17;;
14078;SDS011;7115;50.150;8.568;2023-05-31T12:06:59;1.90;;;1.00;;
14078;SDS011;7115;50.150;8.568;2023-05-31T12:09:26;3.23;;;1.27;;
14078;SDS011;7115;50.150;8.568;2023-05-31T12:11:53;3.30;;;1.30;;
14078;SDS011;7115;50.150;8.568;2023-05-31T12:14:24;1.33;;;1.17;;
14078;SDS011;7115;50.150;8.568;2023-05-31T12:16:52;5.87;;;1.40;;
14078;SDS011;7115;50.150;8.568;2023-05-31T12:19:20;2.63;;;1.20;;
14078;SDS011;7115;50.150;8.568;2023-05-31T12:21:51;2.90;;;1.10;;
14078;SDS011;7115;50.150;8.568;2023-05-31T12:24:19;2.20;;;1.03;;
14078;SDS011;7115;50.150;8.568;2023-05-31T12:26:46;2.33;;;0.93;;
14078;SDS011;7115;50.150;8.568;2023-05-31T12:29:18;3.80;;;1.20;;
14078;SDS011;7115;50.150;8.568;2023-05-31T12:31:45;1.87;;;1.00;;
14078;SDS011;7115;50.150;8.568;2023-05-31T12:34:12;4.00;;;1.13;;
14078;SDS011;7115;50.150;8.568;2023-05-31T12:36:43;3.77;;;1.03;;
14078;SDS011;7115;50.150;8.568;2023-05-31T12:39:12;1.93;;;1.30;;
14078;SDS011;7115;50.150;8.568;2023-05-31T12:41:45;5.50;;;1.77;;
14078;SDS011;7115;50.150;8.568;2023-05-31T12:44:13;2.17;;;1.10;;
14078;SDS011;7115;50.150;8.568;2023-05-31T12:46:42;5.30;;;1.30;;
14078;SDS011;7115;50.150;8.568;2023-05-31T12:49:12;2.20;;;0.90;;
14078;SDS011;7115;50.150;8.568;2023-05-31T12:51:41;3.63;;;1.70;;
14078;SDS011;7115;50.150;8.568;2023-05-31T12:54:11;6.13;;;1.47;;
14078;SDS011;7115;50.150;8.568;2023-05-31T12:56:38;4.37;;;1.17;;
14078;SDS011;7115;50.150;8.568;2023-05-31T12:59:07;2.30;;;1.87;;
14078;SDS011;7115;50.150;8.568;2023-05-31T13:01:35;3.97;;;1.23;;
14078;SDS011;7115;50.150;8.568;2023-05-31T13:04:04;2.20;;;1.17;;
14078;SDS011;7115;50.150;8.568;2023-05-31T13:06:32;2.73;;;1.23;;
14078;SDS011;7115;50.150;8.568;2023-05-31T13:08:59;5.70;;;1.50;;
14078;SDS011;7115;50.150;8.568;2023-05-31T13:11:26;2.37;;;1.37;;
14078;SDS011;7115;50.150;8.568;2023-05-31T13:13:53;2.57;;;1.30;;
14078;SDS011;7115;50.150;8.568;2023-05-31T13:16:22;2.77;;;1.10;;
14078;SDS011;7115;50.150;8.568;2023-05-31T13:18:49;4.13;;;1.47;;
14078;SDS011;7115;50.150;8.568;2023-05-31T13:21:16;2.63;;;1.23;;
14078;SDS011;7115;50.150;8.568;2023-05-31T13:23:43;7.33;;;1.37;;
14078;SDS011;7115;50.150;8.568;2023-05-31T13:26:10;4.17;;;1.60;;
14078;SDS011;7115;50.150;8.568;2023-05-31T13:28:37;3.37;;;1.20;;
14078;SDS011;7115;50.150;8.568;2023-05-31T13:31:04;1.63;;;1.10;;
14078;SDS011;7115;50.150;8.568;2023-05-31T13:33:33;2.30;;;1.40;;
14078;SDS011;7115;50.150;8.568;2023-05-31T13:36:00;2.47;;;1.30;;
14078;SDS011;7115;50.150;8.568;2023-05-31T13:38:27;4.03;;;1.50;;
14078;SDS011;7115;50.150;8.568;2023-05-31T13:40:54;2.27;;;1.40;;
14078;SDS011;7115;50.150;8.568;2023-05-31T13:43:21;4.07;;;1.20;;
14078;SDS011;7115;50.150;8.568;2023-05-31T13:45:49;2.93;;;1.30;;
14078;SDS011;7115;50.150;8.568;2023-05-31T13:48:16;6.03;;;1.70;;
14078;SDS011;7115;50.150;8.568;2023-05-31T13:50:45;3.20;;;1.43;;
14078;SDS011;7115;50.150;8.568;2023-05-31T13:53:12;2.77;;;1.00;;
14078;SDS011;7115;50.150;8.568;2023-05-31T13:55:39;6.03;;;1.40;;
14078;SDS011;7115;50.150;8.568;2023-05-31T13:58:15;2.43;;;1.10;;
14078;SDS011;7115;50.150;8.568;2023-05-31T14:00:42;5.63;;;1.07;;
14078;SDS011;7115;50.150;8.568;2023-05-31T14:03:21;3.03;;;1.20;;
14078;SDS011;7115;50.150;8.568;2023-05-31T14:05:49;3.17;;;1.30;;
14078;SDS011;7115;50.150;8.568;2023-05-31T14:08:16;3.03;;;1.27;;
14078;SDS011;7115;50.150;8.568;2023-05-31T14:10:43;2.07;;;1.17;;
14078;SDS011;7115;50.150;8.568;2023-05-31T14:13:11;3.43;;;1.30;;
14078;SDS011;7115;50.150;8.568;2023-05-31T14:15:38;3.13;;;1.27;;
14078;SDS011;7115;50.150;8.568;2023-05-31T14:18:06;7.20;;;1.50;;
14078;SDS011;7115;50.150;8.568;2023-05-31T14:20:33;2.07;;;1.10;;
14078;SDS011;7115;50.150;8.568;2023-05-31T14:23:03;2.83;;;1.17;;
14078;SDS011;7115;50.150;8.568;2023-05-31T14:25:30;5.00;;;1.50;;
14078;SDS011;7115;50.150;8.568;2023-05-31T14:27:57;4.87;;;1.33;;
14078;SDS011;7115;50.150;8.568;2023-05-31T14:30:24;6.50;;;2.13;;
14078;SDS011;7115;50.150;8.568;2023-05-31T14:32:52;2.80;;;1.07;;
14078;SDS011;7115;50.150;8.568;2023-05-31T14:35:20;3.67;;;1.30;;
14078;SDS011;7115;50.150;8.568;2023-05-31T14:37:48;1.87;;;1.10;;
14078;SDS011;7115;50.150;8.568;2023-05-31T14:40:25;4.53;;;1.20;;
14078;SDS011;7115;50.150;8.568;2023-05-31T14:42:52;3.20;;;1.07;;
14078;SDS011;7115;50.150;8.568;2023-05-31T14:45:19;3.70;;;1.33;;
14078;SDS011;7115;50.150;8.568;2023-05-31T14:47:46;2.43;;;1.17;;
14078;SDS011;7115;50.150;8.568;2023-05-31T14:50:13;5.30;;;1.30;;
14078;SDS011;7115;50.150;8.568;2023-05-31T14:52:40;5.47;;;1.70;;
14078;SDS011;7115;50.150;8.568;2023-05-31T14:55:07;3.47;;;1.97;;
14078;SDS011;7115;50.150;8.568;2023-05-31T14:57:37;3.80;;;1.37;;
14078;SDS011;7115;50.150;8.568;2023-05-31T15:00:05;1.83;;;1.13;;
14078;SDS011;7115;50.150;8.568;2023-05-31T15:02:34;2.80;;;1.60;;
14078;SDS011;7115;50.150;8.568;2023-05-31T15:05:01;5.40;;;1.23;;
14078;SDS011;7115;50.150;8.568;2023-05-31T15:07:27;2.27;;;1.30;;
14078;SDS011;7115;50.150;8.568;2023-05-31T15:09:54;3.53;;;1.17;;
14078;SDS011;7115;50.150;8.568;2023-05-31T15:12:22;2.27;;;1.10;;
14078;SDS011;7115;50.150;8.568;2023-05-31T15:14:50;4.17;;;1.30;;